Terminal Aerodrome Forecast
Issued by NWS

Home | Current Version | Previous Version | Text Only | Print | Product List | Glossary On
Versions: 1 2 3 4 5 6 7 8 9 10 11 12 13
414
FTPA31 PHFO 232027 AAA
TAFHJH
TAF AMD
PHJH 232027Z 2320/2418 VRB05KT P6SM VCSH SCT035
     FM232100 08012G22KT P6SM VCSH SCT040
     FM240600 08008KT P6SM SCT040
      AMD NOT SKED AFT 240400=

USA.gov is the U.S. government's official web portal to all federal, state and local government web resources and services.